Time;durP1;ratioP1;P1;durP2;ratioP2;P2;SDS_P1;SDS_P2;PMS_P1;PMS_P2;Temp;Humidity;BMP_temperature;BMP_pressure;BME280_temperature;BME280_humidity;BME280_pressure;Samples;Min_cycle;Max_cycle;Signal;HPM_P1;HPM_P2
2023/02/23 00:00:30;;;;;;;16.80;7.00;;;;;;;-7.19;100.00;101176.76;107145;1275;25565;-70
2023/02/23 00:03:00;;;;;;;19.40;6.60;;;;;;;-7.22;100.00;101180.14;107098;1275;22639;-70
2023/02/23 00:05:30;;;;;;;13.10;5.50;;;;;;;-7.23;100.00;101186.64;106496;1275;1003074;-73
2023/02/23 00:08:00;;;;;;;15.00;6.10;;;;;;;-7.27;100.00;101188.11;106674;1275;1003364;-77
2023/02/23 00:10:32;;;;;;;13.10;5.50;;;;;;;-7.29;100.00;101189.57;106564;1275;1002994;-75
2023/02/23 00:13:01;;;;;;;14.80;5.40;;;;;;;-7.32;100.00;101194.86;106696;1275;1015804;-74
2023/02/23 00:15:30;;;;;;;12.60;5.70;;;;;;;-7.33;100.00;101199.80;107405;1275;26733;-72
2023/02/23 00:17:59;;;;;;;32.20;11.00;;;;;;;-7.35;100.00;101205.26;107424;1275;26909;-73
2023/02/23 00:20:29;;;;;;;38.60;12.00;;;;;;;-7.37;100.00;101208.10;106633;1275;1003198;-73
2023/02/23 00:22:57;;;;;;;28.00;10.20;;;;;;;-7.38;100.00;101210.93;107482;1275;25443;-73
2023/02/23 00:25:26;;;;;;;53.00;15.30;;;;;;;-7.40;100.00;101217.45;107561;1275;24238;-73
2023/02/23 00:27:58;;;;;;;75.40;21.50;;;;;;;-7.44;100.00;101222.60;107400;1275;26740;-73
2023/02/23 00:30:26;;;;;;;142.40;31.80;;;;;;;-7.47;100.00;101220.02;106743;1275;1003016;-74
2023/02/23 00:32:55;;;;;;;122.70;29.20;;;;;;;-7.48;100.00;101220.20;107445;1275;22782;-74
2023/02/23 00:35:24;;;;;;;195.50;49.50;;;;;;;-7.48;100.00;101223.53;107438;1275;25520;-73
2023/02/23 00:37:57;;;;;;;183.90;48.00;;;;;;;-7.46;100.00;101226.48;107318;1275;226672;-73
2023/02/23 00:40:26;;;;;;;76.60;20.90;;;;;;;-7.44;100.00;101231.02;106743;1261;1002595;-74
2023/02/23 00:42:54;;;;;;;102.70;26.00;;;;;;;-7.40;100.00;101232.88;107324;1275;22675;-73
2023/02/23 00:45:25;;;;;;;81.10;23.10;;;;;;;-7.38;100.00;101235.81;106644;1275;1003097;-74
2023/02/23 00:47:54;;;;;;;54.50;16.00;;;;;;;-7.38;100.00;101240.01;106697;1275;1002906;-73
2023/02/23 00:50:23;;;;;;;53.40;17.20;;;;;;;-7.37;100.00;101241.39;107258;1275;24016;-74
2023/02/23 00:52:51;;;;;;;35.30;13.60;;;;;;;-7.35;100.00;101243.28;106617;1275;1003595;-73
2023/02/23 00:55:20;;;;;;;36.40;11.00;;;;;;;-7.33;100.00;101247.11;107315;1275;22524;-75
2023/02/23 00:57:49;;;;;;;20.70;8.20;;;;;;;-7.32;100.00;101247.95;107387;1275;25479;-75
2023/02/23 01:00:19;;;;;;;18.40;6.30;;;;;;;-7.32;100.00;101249.88;106657;1275;1002841;-74
2023/02/23 01:02:50;;;;;;;17.20;5.60;;;;;;;-7.31;100.00;101253.71;107215;1275;27177;-74
2023/02/23 01:05:19;;;;;;;15.40;5.50;;;;;;;-7.29;100.00;101258.24;107281;1275;24317;-74
2023/02/23 01:07:49;;;;;;;12.30;5.50;;;;;;;-7.29;100.00;101256.83;106611;1275;1002740;-73
2023/02/23 01:10:18;;;;;;;14.70;5.40;;;;;;;-7.29;100.00;101258.77;107249;1275;24651;-73
2023/02/23 01:12:49;;;;;;;11.60;4.90;;;;;;;-7.30;100.00;101263.00;106572;1275;1002496;-74
2023/02/23 01:15:19;;;;;;;12.20;5.60;;;;;;;-7.30;100.00;101263.85;107276;1275;25506;-72
2023/02/23 01:17:47;;;;;;;11.80;5.40;;;;;;;-7.31;100.00;101268.43;107426;1275;22910;-75
2023/02/23 01:20:17;;;;;;;14.40;5.60;;;;;;;-7.32;100.00;101274.23;107366;1275;24164;-74
2023/02/23 01:22:48;;;;;;;15.30;5.40;;;;;;;-7.35;100.00;101277.46;107431;1275;25435;-74
2023/02/23 01:25:17;;;;;;;13.90;5.30;;;;;;;-7.37;100.00;101276.44;107334;1275;22713;-74
2023/02/23 01:27:45;;;;;;;14.20;5.30;;;;;;;-7.39;100.00;101277.86;107388;1275;22569;-73
2023/02/23 01:30:14;;;;;;;14.60;6.00;;;;;;;-7.40;100.00;101283.34;106659;1275;1002467;-74
2023/02/23 01:32:44;;;;;;;14.80;6.30;;;;;;;-7.44;100.00;101286.54;107501;1275;25633;-74
2023/02/23 01:35:13;;;;;;;14.60;5.20;;;;;;;-7.46;100.00;101292.17;106674;1275;1003317;-73
2023/02/23 01:37:41;;;;;;;11.20;5.30;;;;;;;-7.47;100.00;101300.26;107403;1275;24222;-73
2023/02/23 01:40:15;;;;;;;12.30;5.60;;;;;;;-7.50;100.00;101304.50;106600;1275;1003163;-72
2023/02/23 01:42:47;;;;;;;14.80;6.10;;;;;;;-7.52;100.00;101304.89;106657;1275;1002864;-74
2023/02/23 01:45:25;;;;;;;12.00;4.80;;;;;;;-7.56;100.00;101312.84;107333;1275;22672;-73
2023/02/23 01:48:05;;;;;;;10.60;4.80;;;;;;;-7.62;100.00;101319.58;106702;1275;1003481;-74
2023/02/23 01:50:48;;;;;;;14.70;5.20;;;;;;;-7.66;100.00;101321.58;107361;1275;22704;-74
2023/02/23 01:53:17;;;;;;;12.10;4.60;;;;;;;-7.69;100.00;101326.34;107395;1275;26871;-74
2023/02/23 01:55:50;;;;;;;11.90;5.30;;;;;;;-7.71;100.00;101330.94;107430;1275;24202;-73
2023/02/23 01:58:28;;;;;;;11.40;4.90;;;;;;;-7.74;100.00;101337.63;107154;1275;25577;-73
2023/02/23 02:01:00;;;;;;;11.10;4.50;;;;;;;-7.77;100.00;101342.23;107232;1275;22585;-75
2023/02/23 02:03:34;;;;;;;;;;;;;;;-7.80;100.00;101347.52;106708;1275;1003055;-74
2023/02/23 02:06:03;;;;;;;14.60;4.90;;;;;;;-7.81;100.00;101352.42;106670;1275;1005238;-75
2023/02/23 02:08:32;;;;;;;12.40;5.10;;;;;;;-7.85;100.00;101356.87;106454;1275;1002897;-73
2023/02/23 02:11:24;;;;;;;12.40;4.90;;;;;;;-7.89;100.00;101360.42;107359;1275;23583;-74
2023/02/23 02:14:01;;;;;;;15.70;6.10;;;;;;;-7.94;100.00;101363.13;107349;1275;24309;-75
2023/02/23 02:16:33;;;;;;;13.90;6.00;;;;;;;-7.99;100.00;101363.89;107404;1275;27048;-76
2023/02/23 02:19:15;;;;;;;19.30;7.70;;;;;;;-8.02;100.00;101366.55;107374;1275;22741;-73
2023/02/23 02:22:13;;;;;;;14.80;6.60;;;;;;;-8.03;100.00;101369.90;106655;1275;1002829;-75
2023/02/23 02:25:24;;;;;;;28.40;10.10;;;;;;;-8.05;100.00;101375.35;107391;1275;24006;-74
2023/02/23 02:28:03;;;;;;;27.50;8.70;;;;;;;-8.09;100.00;101375.05;107400;1275;26864;-76
2023/02/23 02:30:40;;;;;;;31.20;8.90;;;;;;;-8.12;100.00;101381.91;107408;1275;24035;-73
2023/02/23 02:33:34;;;;;;;13.60;5.50;;;;;;;-8.15;100.00;101385.81;106690;1275;1002986;-74
2023/02/23 02:36:17;;;;;;;13.10;5.00;;;;;;;-8.16;100.00;101387.21;107476;1275;23879;-74
2023/02/23 02:39:09;;;;;;;11.00;4.60;;;;;;;-8.17;100.00;101386.88;107262;1275;22616;-73
2023/02/23 02:41:50;;;;;;;30.20;6.70;;;;;;;-8.16;100.00;101395.45;107351;1275;26496;-75
2023/02/23 02:44:40;;;;;;;44.40;11.30;;;;;;;-8.16;100.00;101390.89;107337;1275;25549;-72
2023/02/23 02:47:18;;;;;;;40.50;11.60;;;;;;;-8.18;100.00;101391.97;107313;1275;24108;-74
2023/02/23 02:50:23;;;;;;;45.80;13.00;;;;;;;-8.20;100.00;101399.87;107350;1275;22530;-74
2023/02/23 02:52:58;;;;;;;27.50;7.60;;;;;;;-8.23;100.00;101403.73;107279;1275;25705;-74
2023/02/23 02:55:28;;;;;;;19.90;7.10;;;;;;;-8.27;100.00;101412.19;106679;1275;1003260;-75
2023/02/23 02:57:57;;;;;;;23.60;7.00;;;;;;;-8.31;100.00;101410.15;106666;1275;1002570;-74
2023/02/23 04:19:54;;;;;;;17.10;6.10;;;;;;;-9.07;100.00;101490.25;106787;1275;1003001;-75
2023/02/23 04:22:24;;;;;;;21.60;7.20;;;;;;;-9.08;100.00;101491.48;107516;1275;25481;-75
2023/02/23 04:24:52;;;;;;;25.60;8.30;;;;;;;-9.10;100.00;101490.45;107444;1275;26055;-76
2023/02/23 04:27:21;;;;;;;28.00;9.00;;;;;;;-9.11;100.00;101493.43;106640;1275;1003437;-75
2023/02/23 04:29:49;;;;;;;33.70;9.70;;;;;;;-9.13;100.00;101493.44;107338;1275;24308;-76
2023/02/23 04:32:21;;;;;;;37.00;10.00;;;;;;;-9.16;100.00;101500.43;106696;1275;1003180;-75
2023/02/23 04:34:50;;;;;;;25.50;7.80;;;;;;;-9.17;100.00;101501.67;107463;1275;23240;-74
2023/02/23 04:37:19;;;;;;;38.80;10.80;;;;;;;-9.17;100.00;101503.60;106697;1275;1002835;-74
2023/02/23 04:39:49;;;;;;;37.00;10.90;;;;;;;-9.17;100.00;101507.96;106862;1275;1002437;-75
2023/02/23 04:42:17;;;;;;;27.70;9.20;;;;;;;-9.19;100.00;101511.48;106606;1275;1003614;-74
2023/02/23 04:44:46;;;;;;;19.10;6.60;;;;;;;-9.19;100.00;101512.17;107444;1275;25542;-75
2023/02/23 04:47:15;;;;;;;19.10;6.90;;;;;;;-9.18;100.00;101519.66;106730;1275;1003214;-76
2023/02/23 04:49:43;;;;;;;25.80;7.60;;;;;;;-9.18;100.00;101522.30;107746;1275;22604;-77
2023/02/23 04:52:12;;;;;;;27.10;8.60;;;;;;;-9.19;100.00;101528.23;106888;1275;1002523;-75
2023/02/23 04:54:42;;;;;;;27.90;9.10;;;;;;;-9.19;100.00;101532.42;106762;1275;1002964;-75
2023/02/23 04:57:10;;;;;;;23.60;8.30;;;;;;;-9.19;100.00;101535.58;106668;1275;1002659;-76
2023/02/23 04:59:39;;;;;;;35.20;11.40;;;;;;;-9.19;100.00;101543.61;106558;1275;1003055;-75
2023/02/23 05:02:08;;;;;;;29.70;9.90;;;;;;;-9.18;100.00;101551.29;107041;1254;25657;-77
2023/02/23 05:04:37;;;;;;;35.90;13.30;;;;;;;-9.17;100.00;101552.85;107001;1275;25621;-75
2023/02/23 05:07:06;;;;;;;24.60;9.60;;;;;;;-9.13;100.00;101558.97;106351;1275;1003784;-75
2023/02/23 05:09:34;;;;;;;19.70;8.50;;;;;;;-9.11;100.00;101563.31;107055;1275;25524;-75
2023/02/23 05:12:03;;;;;;;13.80;6.50;;;;;;;-9.08;100.00;101568.36;106972;1266;26683;-76
2023/02/23 05:14:32;;;;;;;15.50;6.10;;;;;;;-9.05;100.00;101571.14;107073;1275;26037;-75
2023/02/23 05:17:02;;;;;;;18.40;7.90;;;;;;;-9.01;100.00;101575.83;106925;1275;26860;-75
2023/02/23 05:19:34;;;;;;;17.00;7.60;;;;;;;-8.95;100.00;101581.39;106328;1275;1003332;-74
2023/02/23 05:22:04;;;;;;;14.10;6.40;;;;;;;-8.91;100.00;101581.35;106308;1275;1002772;-74
2023/02/23 05:24:32;;;;;;;13.40;6.20;;;;;;;-8.83;100.00;101586.39;107000;1275;24221;-74
2023/02/23 05:27:01;;;;;;;12.30;5.00;;;;;;;-8.74;100.00;101593.84;106286;1275;1002956;-75
2023/02/23 05:29:30;;;;;;;73.70;18.30;;;;;;;-8.61;100.00;101599.86;107080;1275;24462;-76
2023/02/23 05:31:59;;;;;;;41.50;13.80;;;;;;;-8.48;100.00;101602.04;106977;1275;25531;-75
2023/02/23 05:34:28;;;;;;;21.90;8.40;;;;;;;-8.38;100.00;101600.52;107049;1275;25710;-75
2023/02/23 05:36:56;;;;;;;20.20;7.40;;;;;;;-8.32;100.00;101601.70;106378;1275;1002979;-76
2023/02/23 05:39:25;;;;;;;18.40;6.90;;;;;;;-8.29;100.00;101604.81;106262;1275;1002841;-78
2023/02/23 05:41:54;;;;;;;15.30;6.40;;;;;;;-8.26;100.00;101607.08;107242;1275;26007;-77
2023/02/23 05:44:23;;;;;;;24.70;9.70;;;;;;;-8.22;100.00;101608.96;107717;1275;26169;-76
2023/02/23 05:46:53;;;;;;;37.70;14.00;;;;;;;-8.18;100.00;101612.25;107640;1275;25982;-76
2023/02/23 05:49:21;;;;;;;53.70;19.10;;;;;;;-8.12;100.00;101607.30;107679;1275;25491;-75
2023/02/23 05:51:50;;;;;;;54.00;20.20;;;;;;;-8.02;100.00;101604.23;107680;1275;25549;-75
2023/02/23 05:54:19;;;;;;;26.80;8.00;;;;;;;-7.91;100.00;101609.73;107505;1275;26883;-74
2023/02/23 05:56:48;;;;;;;21.70;9.50;;;;;;;-7.80;100.00;101609.62;107584;1275;23321;-76
2023/02/23 05:59:17;;;;;;;28.30;11.10;;;;;;;-7.68;100.00;101613.70;107587;1275;24087;-75
2023/02/23 06:01:45;;;;;;;22.60;9.30;;;;;;;-7.58;100.00;101609.71;107831;1275;26758;-76
2023/02/23 06:04:14;;;;;;;19.30;7.70;;;;;;;-7.46;100.00;101611.00;106951;1275;1003697;-76
2023/02/23 06:06:44;;;;;;;17.60;6.90;;;;;;;-7.36;100.00;101613.49;107685;1269;24024;-74
2023/02/23 06:09:17;;;;;;;22.30;8.40;;;;;;;-7.30;100.00;101610.27;106904;1269;1003068;-74
2023/02/23 06:11:48;;;;;;;19.90;7.40;;;;;;;-7.29;100.00;101605.02;107661;1270;25536;-76
2023/02/23 06:14:16;;;;;;;14.20;6.00;;;;;;;-7.26;100.00;101606.02;107761;1270;22532;-76
2023/02/23 06:16:50;;;;;;;22.70;9.10;;;;;;;-7.20;100.00;101605.42;107484;1275;23957;-75
2023/02/23 06:19:18;;;;;;;18.90;7.50;;;;;;;-7.08;100.00;101606.14;107634;1270;25413;-75
2023/02/23 06:21:47;;;;;;;14.40;5.80;;;;;;;-7.01;100.00;101607.10;107008;1276;1002879;-76
2023/02/23 06:24:16;;;;;;;13.60;5.50;;;;;;;-6.95;100.00;101601.58;107642;1269;22486;-76
2023/02/23 06:26:45;;;;;;;18.00;7.30;;;;;;;-6.87;100.00;101603.92;106889;1272;1002801;-75
2023/02/23 06:29:14;;;;;;;16.00;5.90;;;;;;;-6.77;100.00;101602.03;107820;1269;24199;-74
2023/02/23 06:31:43;;;;;;;18.20;8.20;;;;;;;-6.66;100.00;101603.27;106990;1275;1003130;-76
2023/02/23 06:34:12;;;;;;;25.60;12.30;;;;;;;-6.58;100.00;101594.91;107648;1270;25232;-75
2023/02/23 06:36:41;;;;;;;22.00;8.90;;;;;;;-6.49;100.00;101592.14;106814;1270;1003296;-76
2023/02/23 06:39:12;;;;;;;27.70;12.90;;;;;;;-6.38;100.00;101587.21;106752;1272;1003181;-74
2023/02/23 06:41:42;;;;;;;24.70;8.60;;;;;;;-6.24;100.00;101584.17;107457;1275;23873;-74
2023/02/23 06:44:11;;;;;;;21.00;8.30;;;;;;;-6.06;100.00;101581.23;106620;1275;1002876;-73
2023/02/23 06:46:39;;;;;;;24.60;9.50;;;;;;;-5.91;100.00;101579.36;107282;1276;25879;-74
2023/02/23 06:49:10;;;;;;;18.20;8.20;;;;;;;-5.75;100.00;101579.91;107333;1275;26524;-72
2023/02/23 06:51:42;;;;;;;20.30;8.80;;;;;;;-5.61;100.00;101573.85;107335;1271;25614;-74
2023/02/23 06:54:11;;;;;;;16.80;6.40;;;;;;;-5.53;100.00;101567.72;107165;1275;26509;-77
2023/02/23 06:56:40;;;;;;;21.20;8.30;;;;;;;-5.53;100.00;101555.24;107036;1269;23915;-78
2023/02/23 06:59:08;;;;;;;27.30;11.90;;;;;;;-5.54;100.00;101548.23;107192;1269;23222;-71
2023/02/23 07:01:37;;;;;;;21.80;9.10;;;;;;;-5.48;100.00;101542.51;107483;1270;25768;-72
2023/02/23 07:04:06;;;;;;;19.90;9.20;;;;;;;-5.44;100.00;101531.86;107348;1268;25249;-71
2023/02/23 07:06:36;;;;;;;18.90;8.90;;;;;;;-5.46;100.00;101526.45;107331;1269;24291;-71
2023/02/23 07:09:05;;;;;;;21.80;8.00;;;;;;;-5.51;100.00;101511.45;107487;1269;25489;-74
2023/02/23 07:11:34;;;;;;;21.90;8.60;;;;;;;-5.50;100.00;101496.48;106902;1269;1003820;-74
2023/02/23 07:14:02;;;;;;;23.10;10.00;;;;;;;-5.46;100.00;101483.74;107593;1275;22576;-71
2023/02/23 07:16:31;;;;;;;21.20;8.50;;;;;;;-5.48;100.00;101469.55;106847;1269;1002925;-74
2023/02/23 07:18:59;;;;;;;28.70;13.10;;;;;;;-5.48;100.00;101456.03;107483;1275;22533;-74
2023/02/23 07:21:30;;;;;;;38.90;16.10;;;;;;;-5.43;100.00;101449.40;107279;1269;25373;-76
2023/02/23 07:23:59;;;;;;;30.20;13.20;;;;;;;-5.38;100.00;101438.75;106467;1272;1003169;-75
2023/02/23 07:26:28;;;;;;;20.50;9.00;;;;;;;-5.28;100.00;101428.33;107151;1270;25433;-74
2023/02/23 07:28:57;;;;;;;38.80;16.50;;;;;;;-5.21;100.00;101415.52;106344;1269;1015567;-73
2023/02/23 07:31:25;;;;;;;26.60;11.90;;;;;;;-5.14;100.00;101406.89;106425;1275;1003199;-74
2023/02/23 07:33:55;;;;;;;23.50;10.50;;;;;;;-5.06;100.00;101395.63;106969;1273;26501;-74
2023/02/23 07:36:23;;;;;;;32.50;17.10;;;;;;;-4.94;100.00;101380.54;106370;1269;1003420;-71
2023/02/23 07:38:54;;;;;;;27.50;13.60;;;;;;;-4.79;100.00;101369.06;106164;1270;1003014;-70
2023/02/23 07:41:22;;;;;;;24.10;11.90;;;;;;;-4.66;100.00;101354.81;106281;1275;1003496;-72
2023/02/23 07:43:51;;;;;;;24.90;11.30;;;;;;;-4.53;100.00;101347.42;107135;1272;25372;-70
2023/02/23 07:46:20;;;;;;;19.40;9.40;;;;;;;-4.41;100.00;101340.23;106346;1269;1003023;-70
2023/02/23 07:48:48;;;;;;;30.90;12.90;;;;;;;-4.35;100.00;101332.48;107080;1272;25297;-69
2023/02/23 07:51:18;;;;;;;28.80;13.10;;;;;;;-4.23;100.00;101325.11;106531;1273;1002986;-74
2023/02/23 07:53:48;;;;;;;23.80;12.30;;;;;;;-4.03;100.00;101332.45;106292;1275;1003406;-71
2023/02/23 07:56:16;;;;;;;18.40;8.90;;;;;;;-3.91;100.00;101324.48;107114;1269;22549;-72
2023/02/23 07:58:47;;;;;;;49.50;20.70;;;;;;;-3.98;100.00;101304.09;106592;1268;1003068;-72
2023/02/23 08:01:16;;;;;;;33.40;15.60;;;;;;;-4.02;100.00;101286.08;106541;1271;1003202;-73
2023/02/23 08:03:48;;;;;;;31.30;13.10;;;;;;;-3.96;100.00;101272.52;107052;1275;25492;-73
2023/02/23 08:06:18;;;;;;;35.50;19.40;;;;;;;-3.84;100.00;101269.82;106361;1275;1002554;-72
2023/02/23 08:08:47;;;;;;;23.60;11.50;;;;;;;-3.74;100.00;101258.06;107117;1275;25447;-76
2023/02/23 08:11:19;;;;;;;40.90;20.20;;;;;;;-3.67;100.00;101240.38;106361;1272;1003005;-72
2023/02/23 08:13:49;;;;;;;32.40;17.40;;;;;;;-3.66;100.00;101219.02;106312;1267;1002917;-72
2023/02/23 08:16:18;;;;;;;20.40;9.50;;;;;;;-3.61;100.00;101197.70;106936;1272;24332;-71
2023/02/23 08:18:46;;;;;;;53.30;26.00;;;;;;;-3.55;100.00;101184.98;106274;1275;1003014;-72
2023/02/23 08:21:15;;;;;;;61.60;25.50;;;;;;;-3.47;100.00;101171.65;106284;1269;1003255;-71
2023/02/23 08:23:44;;;;;;;62.10;27.80;;;;;;;-3.41;100.00;101144.67;106281;1276;1003474;-71
2023/02/23 08:26:15;;;;;;;69.30;30.50;;;;;;;-3.35;100.00;101121.52;107158;1276;26512;-71
2023/02/23 08:28:45;;;;;;;65.10;32.50;;;;;;;-3.30;100.00;101098.74;106463;1272;1002353;-73
2023/02/23 08:31:15;;;;;;;37.40;20.00;;;;;;;-3.26;100.00;101073.55;106418;1268;1003848;-73
2023/02/23 08:33:44;;;;;;;58.70;32.00;;;;;;;-3.19;100.00;101054.83;106383;1276;1003388;-72
2023/02/23 08:36:13;;;;;;;41.50;17.70;;;;;;;-3.10;100.00;101050.94;106354;1276;1016274;-73
2023/02/23 08:38:41;;;;;;;26.30;13.50;;;;;;;-3.01;100.00;101039.67;107042;1275;22553;-72
2023/02/23 08:41:10;;;;;;;48.00;21.50;;;;;;;-3.00;100.00;101018.27;106345;1275;1003759;-73
2023/02/23 08:43:42;;;;;;;26.40;13.00;;;;;;;-2.91;100.00;101016.13;106429;1275;1003500;-71
2023/02/23 08:46:11;;;;;;;58.30;19.60;;;;;;;-2.71;100.00;101011.13;106474;1269;1003081;-70
2023/02/23 08:51:44;;;;;;;23.10;11.30;;;;;;;-2.48;100.00;100961.98;106950;1275;25876;-70
2023/02/23 08:54:15;;;;;;;27.20;11.90;;;;;;;-2.48;100.00;100935.13;107118;1272;26498;-72
2023/02/23 08:56:44;;;;;;;29.10;12.10;;;;;;;-2.49;100.00;100907.64;107129;1276;25882;-69
2023/02/23 08:59:13;;;;;;;26.80;11.80;;;;;;;-2.45;100.00;100894.37;106338;1276;1003436;-69
2023/02/23 09:01:42;;;;;;;25.80;10.30;;;;;;;-2.34;100.00;100886.13;106944;1276;25031;-68
2023/02/23 09:04:11;;;;;;;23.20;11.20;;;;;;;-2.31;100.00;100870.80;107252;1275;25311;-69
2023/02/23 09:06:40;;;;;;;18.90;7.40;;;;;;;-2.31;100.00;100846.80;107236;1275;22527;-67
2023/02/23 09:09:09;;;;;;;20.80;8.50;;;;;;;-2.30;100.00;100830.64;106145;1269;1003237;-66
2023/02/23 09:11:37;;;;;;;33.70;14.30;;;;;;;-2.44;100.00;100796.17;106982;1275;25293;-69
2023/02/23 09:14:07;;;;;;;27.60;13.10;;;;;;;-2.56;100.00;100781.70;107069;1275;26487;-68
2023/02/23 09:16:36;;;;;;;29.70;12.60;;;;;;;-2.38;100.00;100784.41;106277;1270;1003801;-67
2023/02/23 09:19:08;;;;;;;39.90;17.20;;;;;;;-2.13;100.00;100785.54;105911;1276;1002993;-66
2023/02/23 09:21:37;;;;;;;28.40;11.40;;;;;;;-2.02;100.00;100760.13;106067;1276;1003199;-70
2023/02/23 09:24:06;;;;;;;28.70;10.80;;;;;;;-1.99;100.00;100726.79;106093;1276;1003737;-68
2023/02/23 09:26:38;;;;;;;43.90;18.90;;;;;;;-1.97;100.00;100707.41;106810;1276;25300;-68
2023/02/23 09:29:07;;;;;;;23.60;11.30;;;;;;;-1.95;100.00;100694.77;106067;1276;1003104;-67
2023/02/23 09:31:37;;;;;;;47.20;22.70;;;;;;;-1.95;100.00;100686.27;106781;1276;25255;-67
2023/02/23 09:34:08;;;;;;;35.50;15.20;;;;;;;-1.93;100.00;100681.03;106857;1269;24331;-68
2023/02/23 09:36:39;;;;;;;;;;;;;;;-1.71;100.00;100684.77;106930;1269;25418;-68
2023/02/23 09:39:08;;;;;;;30.40;14.60;;;;;;;-1.60;100.00;100669.37;106917;1270;26521;-67
2023/02/23 09:41:45;;;;;;;29.00;15.00;;;;;;;-1.54;100.00;100661.80;106276;1272;1003763;-69
2023/02/23 09:44:40;;;;;;;30.90;15.10;;;;;;;-1.39;100.00;100651.69;106982;1275;25433;-71
2023/02/23 09:47:17;;;;;;;28.70;13.60;;;;;;;-1.21;100.00;100645.60;107093;1272;25430;-69
2023/02/23 09:49:47;;;;;;;63.10;26.60;;;;;;;-0.92;100.00;100650.44;106357;1270;1003680;-69
2023/02/23 09:52:22;;;;;;;66.30;35.70;;;;;;;-0.71;100.00;100636.75;107004;1273;22750;-70
2023/02/23 09:54:51;;;;;;;25.20;12.70;;;;;;;-0.72;100.00;100606.14;107371;1275;23001;-73
2023/02/23 09:57:28;;;;;;;23.20;11.50;;;;;;;-0.69;100.00;100599.43;106410;1275;1002417;-67
2023/02/23 09:59:58;;;;;;;31.70;16.80;;;;;;;-0.81;100.00;100578.83;106128;1275;1003103;-69
2023/02/23 10:02:50;;;;;;;18.90;7.90;;;;;;;-1.03;100.00;100570.31;107013;1275;23906;-69
2023/02/23 10:05:18;;;;;;;33.00;11.60;;;;;;;-1.24;100.00;100565.96;107062;1270;22457;-66
2023/02/23 10:07:51;;;;;;;25.10;12.80;;;;;;;-1.42;100.00;100567.45;106028;1270;1003705;-69
2023/02/23 10:10:39;;;;;;;21.80;10.30;;;;;;;-1.40;100.00;100568.23;107035;1270;22531;-69
2023/02/23 10:13:44;;;;;;;34.80;19.10;;;;;;;-1.24;100.00;100569.52;107221;1276;22531;-70
2023/02/23 10:16:36;;;;;;;46.40;20.40;;;;;;;-0.99;100.00;100567.23;106282;1276;1003665;-71
2023/02/23 10:19:09;;;;;;;22.90;10.60;;;;;;;-0.76;100.00;100570.58;107059;1272;1015271;-72
2023/02/23 10:21:42;;;;;;;31.70;12.40;;;;;;;-0.70;100.00;100561.80;107307;1268;25419;-70
2023/02/23 10:24:41;;;;;;;19.70;9.50;;;;;;;-0.75;100.00;100563.29;106353;1272;1003235;-73
2023/02/23 10:28:23;;;;;;;27.60;14.30;;;;;;;-0.88;100.00;100551.80;106783;1269;1002611;-73
2023/02/23 10:31:18;;;;;;;26.00;11.20;;;;;;;-0.89;100.00;100548.46;106740;1276;1002863;-71
2023/02/23 10:33:49;;;;;;;25.50;11.40;;;;;;;-0.82;100.00;100551.11;108050;1269;22526;-71
2023/02/23 10:36:44;;;;;;;26.30;10.10;;;;;;;-0.73;100.00;100545.45;107572;1275;24165;-71
2023/02/23 10:39:13;;;;;;;23.40;10.90;;;;;;;-0.54;100.00;100546.66;106450;1275;1002834;-72
2023/02/23 10:41:42;;;;;;;34.00;17.60;;;;;;;-0.50;100.00;100545.05;107567;1272;22514;-71
2023/02/23 10:44:23;;;;;;;20.80;9.70;;;;;;;-0.56;100.00;100537.05;107398;1275;25249;-72
2023/02/23 10:47:18;;;;;;;14.80;7.40;;;;;;;-0.47;100.00;100539.76;107858;1272;22523;-70
2023/02/23 10:49:49;;;;;;;20.70;11.00;;;;;;;-0.53;100.00;100534.61;106796;1275;1002587;-69
2023/02/23 10:52:21;;;;;;;23.60;10.10;;;;;;;-0.53;100.00;100530.90;107516;1275;24668;-71
2023/02/23 10:54:50;;;;;;;18.30;8.20;;;;;;;-0.43;100.00;100527.44;107567;1275;22690;-70
2023/02/23 10:57:31;;;;;;;22.20;10.60;;;;;;;-0.42;100.00;100520.30;107397;1270;22498;-72
2023/02/23 11:00:25;;;;;;;19.90;8.40;;;;;;;-0.44;100.00;100526.30;106803;1269;1002993;-73
2023/02/23 11:02:57;;;;;;;27.10;12.10;;;;;;;-0.50;100.00;100529.30;106799;1272;1003529;-73
2023/02/23 11:05:27;;;;;;;27.10;14.30;;;;;;;-0.51;100.00;100531.48;106717;1275;1002992;-70
2023/02/23 11:08:36;;;;;;;39.50;16.40;;;;;;;-0.51;100.00;100532.00;107383;1262;25416;-71
2023/02/23 11:11:14;;;;;;;22.60;10.20;;;;;;;-0.46;100.00;100533.84;107002;1272;25245;-73
2023/02/23 11:13:45;;;;;;;23.50;11.80;;;;;;;-0.53;100.00;100539.38;106661;1272;1003320;-73
2023/02/23 11:16:18;;;;;;;21.10;8.20;;;;;;;-0.76;100.00;100544.73;106836;1269;1003027;-73
2023/02/23 11:18:57;;;;;;;23.90;10.10;;;;;;;-0.94;100.00;100550.14;107420;1268;25310;-72
2023/02/23 11:21:32;;;;;;;22.30;8.70;;;;;;;-1.01;100.00;100556.59;107695;1275;22579;-72
2023/02/23 11:24:41;;;;;;;17.10;8.40;;;;;;;-1.00;100.00;100563.05;107584;1269;22537;-71
2023/02/23 11:27:22;;;;;;;21.90;10.10;;;;;;;-0.84;100.00;100569.95;107578;1269;22673;-71
2023/02/23 11:29:54;;;;;;;24.70;12.10;;;;;;;-0.72;100.00;100570.41;107381;1275;26328;-71
2023/02/23 11:32:27;;;;;;;24.50;11.00;;;;;;;-0.61;100.00;100568.71;107232;1269;25440;-70
2023/02/23 11:35:16;;;;;;;28.50;12.70;;;;;;;-0.59;100.00;100561.66;107444;1269;22689;-69
2023/02/23 11:37:45;;;;;;;23.00;10.40;;;;;;;-0.49;100.00;100557.56;106835;1270;1003285;-72
2023/02/23 11:40:33;;;;;;;20.60;10.60;;;;;;;-0.44;100.00;100552.99;107242;1275;26654;-68
2023/02/23 11:43:06;;;;;;;23.70;12.10;;;;;;;-0.35;100.00;100554.64;107358;1275;22682;-72
2023/02/23 11:45:59;;;;;;;19.50;9.30;;;;;;;-0.31;100.00;100546.98;107526;1275;23329;-72
2023/02/23 11:48:41;;;;;;;18.90;8.60;;;;;;;-0.32;100.00;100543.67;107631;1271;25246;-71
2023/02/23 11:51:12;;;;;;;116.90;39.50;;;;;;;-0.29;100.00;100539.75;107823;1275;22719;-72
2023/02/23 11:53:44;;;;;;;91.40;36.50;;;;;;;-0.15;100.00;100538.59;107553;1272;25875;-71
2023/02/23 11:56:13;;;;;;;21.30;10.60;;;;;;;0.03;100.00;100542.14;107064;1275;1003105;-74
2023/02/23 11:58:43;;;;;;;29.80;15.30;;;;;;;0.07;100.00;100535.71;106764;1275;1003675;-74
2023/02/23 12:01:20;;;;;;;28.70;13.90;;;;;;;0.14;100.00;100534.38;107483;1276;25437;-70
2023/02/23 12:03:56;;;;;;;19.60;10.10;;;;;;;0.25;100.00;100533.55;106643;1276;1016097;-69
2023/02/23 12:06:29;;;;;;;17.90;9.10;;;;;;;0.24;100.00;100534.67;107214;1276;25441;-70
2023/02/23 12:09:11;;;;;;;17.70;9.10;;;;;;;0.19;100.00;100538.36;106564;1263;1003231;-72
2023/02/23 12:11:43;;;;;;;14.00;6.70;;;;;;;0.10;100.00;100535.71;107175;1276;26707;-70
2023/02/23 12:14:40;;;;;;;14.40;6.50;;;;;;;0.02;100.00;100539.92;107282;1276;23906;-70
2023/02/23 12:17:26;;;;;;;18.30;7.30;;;;;;;0.08;100.00;100541.13;107195;1276;25287;-71
2023/02/23 12:20:01;;;;;;;14.30;6.40;;;;;;;0.10;100.00;100545.13;106375;1276;1003197;-69
2023/02/23 12:22:38;;;;;;;14.70;6.80;;;;;;;0.09;100.00;100551.14;106475;1275;1003024;-70
2023/02/23 12:25:31;;;;;;;11.80;6.20;;;;;;;0.08;100.00;100552.50;106719;1275;1003006;-72
2023/02/23 12:28:26;;;;;;;15.40;7.20;;;;;;;-0.00;100.00;100553.16;106498;1269;1003460;-70
2023/02/23 12:31:03;;;;;;;17.20;7.60;;;;;;;-0.10;100.00;100553.17;107298;1276;22531;-71
2023/02/23 12:33:40;;;;;;;17.90;9.20;;;;;;;-0.20;100.00;100557.67;106654;1276;1002931;-71
2023/02/23 12:36:34;;;;;;;23.30;10.10;;;;;;;-0.25;100.00;100559.01;107356;1276;22530;-71
2023/02/23 12:39:32;;;;;;;17.80;9.20;;;;;;;-0.07;100.00;100554.27;107173;1270;226366;-70
2023/02/23 12:42:06;;;;;;;21.60;11.10;;;;;;;0.11;100.00;100553.03;107456;1276;25718;-70